Date,TemperatureHighF,TemperatureAvgF,TemperatureLowF,DewpointHighF,DewpointAvgF,DewpointLowF,HumidityHigh,HumidityAvg,HumidityLow,PressureMaxIn,PressureMinIn,WindSpeedMaxMPH,WindSpeedAvgMPH,GustSpeedMaxMPH,PrecipitationSumIn
2013-2-1,22.5,16.9,11.9,13.9,9.5,3.2,81,73,62,30.07,29.67,10,5,10,0.00
2013-2-2,26.1,19.1,14.0,19.6,13.3,6.7,84,78,72,30.02,29.73,8,2,8,0.00
2013-2-3,24.1,17.3,9.0,17.3,9.9,3.2,79,73,65,29.80,29.65,13,3,13,0.00
2013-2-4,25.9,20.8,18.4,19.6,15.0,9.4,84,78,67,29.82,29.67,4,1,4,0.00
2013-2-5,29.3,23.7,17.5,23.7,17.8,12.8,84,78,62,29.74,29.62,7,2,7,0.00
2013-2-6,32.4,24.7,14.4,24.1,17.1,8.8,85,73,59,30.09,29.74,7,2,7,0.00
2013-2-7,37.1,32.1,25.2,27.2,24.6,17.7,79,74,66,30.08,29.68,9,5,9,0.00
2013-2-8,31.3,28.9,24.8,28.6,23.4,18.0,90,80,73,30.11,29.54,8,3,8,0.00
2013-2-9,30.6,23.0,11.9,20.3,16.2,6.6,86,75,64,30.23,30.08,6,2,6,0.00
2013-2-10,40.0,30.8,18.9,32.6,24.1,14.8,87,77,63,30.08,29.51,8,3,8,0.00
2013-2-11,43.4,38.3,33.1,40.1,31.2,24.7,92,76,64,29.66,29.37,25,8,25,0.00
2013-2-12,35.8,32.8,29.9,26.3,24.3,21.6,74,71,64,29.84,29.68,12,5,12,0.00
2013-2-13,37.4,31.4,27.7,26.6,23.7,20.5,81,73,63,29.72,29.54,7,3,7,0.00
2013-2-14,39.6,34.3,27.4,34.9,29.3,23.1,88,82,72,29.63,29.49,12,4,12,0.00
2013-2-15,35.8,30.6,26.3,28.0,19.1,13.6,76,62,50,29.91,29.64,13,6,13,0.00
2013-2-16,28.8,22.8,17.5,21.3,14.6,10.2,79,70,59,29.90,29.76,8,2,8,0.00
2013-2-17,25.4,18.6,11.0,13.8,8.8,4.8,83,66,49,30.00,29.83,9,2,9,0.00
2013-2-18,43.2,30.1,14.9,34.2,21.2,6.2,75,69,62,30.00,29.43,10,4,10,0.00
2013-2-19,43.4,30.5,20.0,39.0,23.6,12.2,91,76,60,29.73,29.25,21,8,21,0.00
2013-2-20,24.5,21.6,17.6,15.4,11.8,7.1,75,66,58,30.01,29.73,14,7,14,0.00
2013-2-21,27.0,23.0,21.4,16.5,14.1,12.8,79,69,58,30.16,30.01,10,4,10,0.00
2013-2-22,33.8,27.9,22.3,31.5,24.5,16.5,92,87,77,30.06,29.69,13,5,13,0.00
2013-2-23,36.9,32.2,24.8,30.2,23.5,16.0,87,70,60,29.72,29.67,7,3,7,0.00
2013-2-24,38.5,30.4,23.9,26.3,22.0,17.2,78,71,61,29.94,29.69,10,3,10,0.00
2013-2-25,39.1,30.0,18.4,26.2,21.2,12.9,83,70,56,30.01,29.89,6,2,6,0.00
2013-2-26,33.8,31.3,27.4,31.2,26.4,20.4,93,82,71,29.91,29.31,17,6,17,0.00
2013-2-27,37.8,34.5,32.8,35.1,31.9,30.5,94,90,83,29.39,29.24,12,3,12,0.00
2013-2-28,39.6,35.2,32.9,33.7,30.8,27.2,92,84,72,29.66,29.35,6,2,6,0.00